sensor_id;sensor_type;location;lat;lon;timestamp;P1;durP1;ratioP1;P2;durP2;ratioP2
41309;SDS011;27057;51.438;-0.010;2022-07-23T00:01:11;14.75;;;3.80;;
41309;SDS011;27057;51.438;-0.010;2022-07-23T00:03:54;14.40;;;3.22;;
41309;SDS011;27057;51.438;-0.010;2022-07-23T00:06:22;10.45;;;3.58;;
41309;SDS011;27057;51.438;-0.010;2022-07-23T00:08:50;13.15;;;3.42;;
41309;SDS011;27057;51.438;-0.010;2022-07-23T00:11:19;10.15;;;3.38;;
41309;SDS011;27057;51.438;-0.010;2022-07-23T00:13:46;7.40;;;3.13;;
41309;SDS011;27057;51.438;-0.010;2022-07-23T00:16:14;5.38;;;3.10;;
41309;SDS011;27057;51.438;-0.010;2022-07-23T00:18:41;9.70;;;4.60;;
41309;SDS011;27057;51.438;-0.010;2022-07-23T00:21:09;7.82;;;3.03;;
41309;SDS011;27057;51.438;-0.010;2022-07-23T00:23:37;10.02;;;3.88;;
41309;SDS011;27057;51.438;-0.010;2022-07-23T00:26:04;9.88;;;2.90;;
41309;SDS011;27057;51.438;-0.010;2022-07-23T00:28:34;15.15;;;3.65;;
41309;SDS011;27057;51.438;-0.010;2022-07-23T00:31:02;10.70;;;3.45;;
41309;SDS011;27057;51.438;-0.010;2022-07-23T00:33:29;12.32;;;3.90;;
41309;SDS011;27057;51.438;-0.010;2022-07-23T00:35:57;14.40;;;3.25;;
41309;SDS011;27057;51.438;-0.010;2022-07-23T00:38:25;9.00;;;3.17;;
41309;SDS011;27057;51.438;-0.010;2022-07-23T00:40:52;7.40;;;3.25;;
41309;SDS011;27057;51.438;-0.010;2022-07-23T00:43:20;11.80;;;3.92;;
41309;SDS011;27057;51.438;-0.010;2022-07-23T00:45:48;11.18;;;3.70;;
41309;SDS011;27057;51.438;-0.010;2022-07-23T00:48:16;18.02;;;3.08;;
41309;SDS011;27057;51.438;-0.010;2022-07-23T00:50:44;6.10;;;2.28;;
41309;SDS011;27057;51.438;-0.010;2022-07-23T00:53:12;7.82;;;2.63;;
41309;SDS011;27057;51.438;-0.010;2022-07-23T00:55:39;9.88;;;3.10;;
41309;SDS011;27057;51.438;-0.010;2022-07-23T00:58:07;11.32;;;3.35;;
41309;SDS011;27057;51.438;-0.010;2022-07-23T01:00:36;14.25;;;3.35;;
41309;SDS011;27057;51.438;-0.010;2022-07-23T01:03:03;6.45;;;2.75;;
41309;SDS011;27057;51.438;-0.010;2022-07-23T01:05:30;11.88;;;3.45;;
41309;SDS011;27057;51.438;-0.010;2022-07-23T01:07:58;9.00;;;3.13;;
41309;SDS011;27057;51.438;-0.010;2022-07-23T01:10:26;10.00;;;3.03;;
41309;SDS011;27057;51.438;-0.010;2022-07-23T01:13:09;9.27;;;2.95;;
41309;SDS011;27057;51.438;-0.010;2022-07-23T01:16:33;6.88;;;3.10;;
41309;SDS011;27057;51.438;-0.010;2022-07-23T01:19:01;10.30;;;3.20;;
41309;SDS011;27057;51.438;-0.010;2022-07-23T01:21:51;7.00;;;3.05;;
41309;SDS011;27057;51.438;-0.010;2022-07-23T01:24:30;13.25;;;3.40;;
41309;SDS011;27057;51.438;-0.010;2022-07-23T01:27:03;11.93;;;3.67;;
41309;SDS011;27057;51.438;-0.010;2022-07-23T01:29:38;8.18;;;2.83;;
41309;SDS011;27057;51.438;-0.010;2022-07-23T01:32:12;12.55;;;3.83;;
41309;SDS011;27057;51.438;-0.010;2022-07-23T01:34:42;6.95;;;3.00;;
41309;SDS011;27057;51.438;-0.010;2022-07-23T01:37:49;14.50;;;3.50;;
41309;SDS011;27057;51.438;-0.010;2022-07-23T01:40:33;9.13;;;3.50;;
41309;SDS011;27057;51.438;-0.010;2022-07-23T01:43:11;6.20;;;2.92;;
41309;SDS011;27057;51.438;-0.010;2022-07-23T01:45:47;8.25;;;3.10;;
41309;SDS011;27057;51.438;-0.010;2022-07-23T01:48:45;17.30;;;4.28;;
41309;SDS011;27057;51.438;-0.010;2022-07-23T01:51:55;11.95;;;4.20;;
41309;SDS011;27057;51.438;-0.010;2022-07-23T01:54:42;10.68;;;3.38;;
41309;SDS011;27057;51.438;-0.010;2022-07-23T01:57:14;11.43;;;3.85;;
41309;SDS011;27057;51.438;-0.010;2022-07-23T01:59:42;13.48;;;3.70;;
41309;SDS011;27057;51.438;-0.010;2022-07-23T02:02:12;12.20;;;3.70;;
41309;SDS011;27057;51.438;-0.010;2022-07-23T02:04:40;6.55;;;3.38;;
41309;SDS011;27057;51.438;-0.010;2022-07-23T02:07:19;8.57;;;4.28;;
41309;SDS011;27057;51.438;-0.010;2022-07-23T02:10:00;12.43;;;3.13;;
41309;SDS011;27057;51.438;-0.010;2022-07-23T02:12:36;11.95;;;3.63;;
41309;SDS011;27057;51.438;-0.010;2022-07-23T02:15:15;10.65;;;4.50;;
41309;SDS011;27057;51.438;-0.010;2022-07-23T02:17:45;16.23;;;3.67;;
41309;SDS011;27057;51.438;-0.010;2022-07-23T02:20:31;11.27;;;3.90;;
41309;SDS011;27057;51.438;-0.010;2022-07-23T02:23:13;10.80;;;3.33;;
41309;SDS011;27057;51.438;-0.010;2022-07-23T02:25:52;8.90;;;3.30;;
41309;SDS011;27057;51.438;-0.010;2022-07-23T02:28:21;10.68;;;3.55;;
41309;SDS011;27057;51.438;-0.010;2022-07-23T02:30:58;7.22;;;3.25;;
41309;SDS011;27057;51.438;-0.010;2022-07-23T02:33:33;12.05;;;3.45;;
41309;SDS011;27057;51.438;-0.010;2022-07-23T02:36:24;9.00;;;3.88;;
41309;SDS011;27057;51.438;-0.010;2022-07-23T02:39:36;7.90;;;3.90;;
41309;SDS011;27057;51.438;-0.010;2022-07-23T02:42:46;16.50;;;5.65;;
41309;SDS011;27057;51.438;-0.010;2022-07-23T02:45:30;17.60;;;4.90;;
41309;SDS011;27057;51.438;-0.010;2022-07-23T02:48:25;15.20;;;5.90;;
41309;SDS011;27057;51.438;-0.010;2022-07-23T02:50:54;14.45;;;5.00;;
41309;SDS011;27057;51.438;-0.010;2022-07-23T02:53:41;10.32;;;4.65;;
41309;SDS011;27057;51.438;-0.010;2022-07-23T02:56:17;12.10;;;4.88;;
41309;SDS011;27057;51.438;-0.010;2022-07-23T02:58:46;9.77;;;5.00;;
41309;SDS011;27057;51.438;-0.010;2022-07-23T03:01:28;12.32;;;4.32;;
41309;SDS011;27057;51.438;-0.010;2022-07-23T03:04:13;18.42;;;5.03;;
41309;SDS011;27057;51.438;-0.010;2022-07-23T03:07:15;10.52;;;4.25;;
41309;SDS011;27057;51.438;-0.010;2022-07-23T03:09:45;8.90;;;4.10;;
41309;SDS011;27057;51.438;-0.010;2022-07-23T03:12:19;12.35;;;4.10;;
41309;SDS011;27057;51.438;-0.010;2022-07-23T03:15:04;18.40;;;4.38;;
41309;SDS011;27057;51.438;-0.010;2022-07-23T03:17:49;10.88;;;3.72;;
41309;SDS011;27057;51.438;-0.010;2022-07-23T03:20:30;17.67;;;4.10;;
41309;SDS011;27057;51.438;-0.010;2022-07-23T03:23:06;8.15;;;4.18;;
41309;SDS011;27057;51.438;-0.010;2022-07-23T03:26:35;7.75;;;3.53;;
41309;SDS011;27057;51.438;-0.010;2022-07-23T03:29:11;11.10;;;3.90;;
41309;SDS011;27057;51.438;-0.010;2022-07-23T03:31:58;9.82;;;3.58;;
41309;SDS011;27057;51.438;-0.010;2022-07-23T03:34:55;8.02;;;3.47;;
41309;SDS011;27057;51.438;-0.010;2022-07-23T03:38:24;6.18;;;3.05;;
41309;SDS011;27057;51.438;-0.010;2022-07-23T03:41:17;9.40;;;3.55;;
41309;SDS011;27057;51.438;-0.010;2022-07-23T03:43:59;5.45;;;2.92;;
41309;SDS011;27057;51.438;-0.010;2022-07-23T03:46:42;12.75;;;3.53;;
41309;SDS011;27057;51.438;-0.010;2022-07-23T03:53:48;7.75;;;3.42;;
41309;SDS011;27057;51.438;-0.010;2022-07-23T03:56:32;7.05;;;3.15;;
41309;SDS011;27057;51.438;-0.010;2022-07-23T03:59:09;15.27;;;3.55;;
41309;SDS011;27057;51.438;-0.010;2022-07-23T04:01:40;11.15;;;3.58;;
41309;SDS011;27057;51.438;-0.010;2022-07-23T04:04:22;5.18;;;2.95;;
41309;SDS011;27057;51.438;-0.010;2022-07-23T04:07:04;7.82;;;2.85;;
41309;SDS011;27057;51.438;-0.010;2022-07-23T04:09:32;8.63;;;3.30;;
41309;SDS011;27057;51.438;-0.010;2022-07-23T04:12:17;11.45;;;3.33;;
41309;SDS011;27057;51.438;-0.010;2022-07-23T04:14:46;12.20;;;3.45;;
41309;SDS011;27057;51.438;-0.010;2022-07-23T04:17:40;13.85;;;3.33;;
41309;SDS011;27057;51.438;-0.010;2022-07-23T04:20:19;15.35;;;3.97;;
41309;SDS011;27057;51.438;-0.010;2022-07-23T04:22:56;7.70;;;3.70;;
41309;SDS011;27057;51.438;-0.010;2022-07-23T04:25:25;6.65;;;2.83;;
41309;SDS011;27057;51.438;-0.010;2022-07-23T04:27:53;15.00;;;4.63;;
41309;SDS011;27057;51.438;-0.010;2022-07-23T04:30:31;8.88;;;3.28;;
41309;SDS011;27057;51.438;-0.010;2022-07-23T04:33:11;13.60;;;4.28;;
41309;SDS011;27057;51.438;-0.010;2022-07-23T04:36:13;9.43;;;2.95;;
41309;SDS011;27057;51.438;-0.010;2022-07-23T04:39:31;7.95;;;3.17;;
41309;SDS011;27057;51.438;-0.010;2022-07-23T04:42:39;12.50;;;3.03;;
41309;SDS011;27057;51.438;-0.010;2022-07-23T04:45:20;7.28;;;3.53;;
41309;SDS011;27057;51.438;-0.010;2022-07-23T04:47:50;9.07;;;3.50;;
41309;SDS011;27057;51.438;-0.010;2022-07-23T04:50:17;12.80;;;4.03;;
41309;SDS011;27057;51.438;-0.010;2022-07-23T04:52:49;10.68;;;3.42;;
41309;SDS011;27057;51.438;-0.010;2022-07-23T04:55:17;13.75;;;3.80;;
41309;SDS011;27057;51.438;-0.010;2022-07-23T04:57:45;18.08;;;4.05;;
41309;SDS011;27057;51.438;-0.010;2022-07-23T05:00:12;15.45;;;3.97;;
41309;SDS011;27057;51.438;-0.010;2022-07-23T05:02:40;9.38;;;3.00;;
41309;SDS011;27057;51.438;-0.010;2022-07-23T05:05:08;10.70;;;3.22;;
41309;SDS011;27057;51.438;-0.010;2022-07-23T05:07:36;20.70;;;4.15;;
41309;SDS011;27057;51.438;-0.010;2022-07-23T05:10:03;6.25;;;2.97;;
41309;SDS011;27057;51.438;-0.010;2022-07-23T05:12:32;8.18;;;3.47;;
41309;SDS011;27057;51.438;-0.010;2022-07-23T05:14:59;11.35;;;3.92;;
41309;SDS011;27057;51.438;-0.010;2022-07-23T05:17:26;10.68;;;4.03;;
41309;SDS011;27057;51.438;-0.010;2022-07-23T05:19:54;10.55;;;4.70;;
41309;SDS011;27057;51.438;-0.010;2022-07-23T05:22:28;16.52;;;4.60;;
41309;SDS011;27057;51.438;-0.010;2022-07-23T05:24:56;10.77;;;4.63;;
41309;SDS011;27057;51.438;-0.010;2022-07-23T05:27:23;13.05;;;4.13;;
41309;SDS011;27057;51.438;-0.010;2022-07-23T05:29:51;6.50;;;4.45;;
41309;SDS011;27057;51.438;-0.010;2022-07-23T05:32:18;7.68;;;4.15;;
41309;SDS011;27057;51.438;-0.010;2022-07-23T05:34:53;14.20;;;5.47;;
41309;SDS011;27057;51.438;-0.010;2022-07-23T05:37:20;18.77;;;5.18;;
41309;SDS011;27057;51.438;-0.010;2022-07-23T05:39:48;16.02;;;4.97;;
41309;SDS011;27057;51.438;-0.010;2022-07-23T05:42:17;14.32;;;5.40;;
41309;SDS011;27057;51.438;-0.010;2022-07-23T05:44:44;14.48;;;5.05;;
41309;SDS011;27057;51.438;-0.010;2022-07-23T05:47:12;10.73;;;4.57;;
41309;SDS011;27057;51.438;-0.010;2022-07-23T05:49:40;13.05;;;5.40;;
41309;SDS011;27057;51.438;-0.010;2022-07-23T05:52:22;15.85;;;5.63;;
41309;SDS011;27057;51.438;-0.010;2022-07-23T05:55:19;12.73;;;5.57;;
41309;SDS011;27057;51.438;-0.010;2022-07-23T05:57:46;20.55;;;5.20;;
41309;SDS011;27057;51.438;-0.010;2022-07-23T06:00:13;11.85;;;4.55;;
41309;SDS011;27057;51.438;-0.010;2022-07-23T06:02:43;16.83;;;5.22;;
41309;SDS011;27057;51.438;-0.010;2022-07-23T06:05:12;11.88;;;4.53;;
41309;SDS011;27057;51.438;-0.010;2022-07-23T06:07:40;14.35;;;4.53;;
41309;SDS011;27057;51.438;-0.010;2022-07-23T06:10:07;16.95;;;5.13;;
41309;SDS011;27057;51.438;-0.010;2022-07-23T06:12:35;10.55;;;4.45;;
41309;SDS011;27057;51.438;-0.010;2022-07-23T06:15:05;13.07;;;4.38;;
41309;SDS011;27057;51.438;-0.010;2022-07-23T06:17:37;9.77;;;4.45;;
41309;SDS011;27057;51.438;-0.010;2022-07-23T06:20:06;11.90;;;4.68;;
41309;SDS011;27057;51.438;-0.010;2022-07-23T06:22:37;13.85;;;3.88;;
41309;SDS011;27057;51.438;-0.010;2022-07-23T06:25:05;14.02;;;4.93;;
41309;SDS011;27057;51.438;-0.010;2022-07-23T06:27:40;15.73;;;4.20;;
41309;SDS011;27057;51.438;-0.010;2022-07-23T06:30:07;10.90;;;4.40;;
41309;SDS011;27057;51.438;-0.010;2022-07-23T06:32:37;11.45;;;5.53;;
41309;SDS011;27057;51.438;-0.010;2022-07-23T06:35:04;11.38;;;4.25;;
41309;SDS011;27057;51.438;-0.010;2022-07-23T06:37:32;12.68;;;4.75;;
41309;SDS011;27057;51.438;-0.010;2022-07-23T06:40:00;24.60;;;4.28;;
41309;SDS011;27057;51.438;-0.010;2022-07-23T06:42:28;10.35;;;3.90;;
41309;SDS011;27057;51.438;-0.010;2022-07-23T06:45:01;18.73;;;4.10;;
41309;SDS011;27057;51.438;-0.010;2022-07-23T06:47:28;11.95;;;4.22;;
41309;SDS011;27057;51.438;-0.010;2022-07-23T06:49:55;9.35;;;4.75;;
41309;SDS011;27057;51.438;-0.010;2022-07-23T06:52:24;13.57;;;4.40;;
41309;SDS011;27057;51.438;-0.010;2022-07-23T06:54:52;11.57;;;4.80;;
41309;SDS011;27057;51.438;-0.010;2022-07-23T06:57:20;21.98;;;6.18;;
41309;SDS011;27057;51.438;-0.010;2022-07-23T06:59:48;11.88;;;5.10;;
41309;SDS011;27057;51.438;-0.010;2022-07-23T07:02:21;11.02;;;5.00;;
41309;SDS011;27057;51.438;-0.010;2022-07-23T07:04:49;11.18;;;5.18;;
41309;SDS011;27057;51.438;-0.010;2022-07-23T07:07:16;28.27;;;6.68;;
41309;SDS011;27057;51.438;-0.010;2022-07-23T07:09:44;16.20;;;4.57;;
41309;SDS011;27057;51.438;-0.010;2022-07-23T07:12:14;11.27;;;4.45;;
41309;SDS011;27057;51.438;-0.010;2022-07-23T07:14:41;17.33;;;4.57;;
41309;SDS011;27057;51.438;-0.010;2022-07-23T07:17:08;20.55;;;5.00;;
41309;SDS011;27057;51.438;-0.010;2022-07-23T07:19:37;13.48;;;4.38;;
41309;SDS011;27057;51.438;-0.010;2022-07-23T07:22:04;18.20;;;5.15;;
41309;SDS011;27057;51.438;-0.010;2022-07-23T07:24:32;12.65;;;4.10;;
41309;SDS011;27057;51.438;-0.010;2022-07-23T07:27:04;13.07;;;4.93;;
41309;SDS011;27057;51.438;-0.010;2022-07-23T07:29:31;14.23;;;4.82;;
41309;SDS011;27057;51.438;-0.010;2022-07-23T07:31:59;12.48;;;4.72;;
41309;SDS011;27057;51.438;-0.010;2022-07-23T07:34:26;14.15;;;5.07;;
41309;SDS011;27057;51.438;-0.010;2022-07-23T07:36:54;20.85;;;4.88;;
41309;SDS011;27057;51.438;-0.010;2022-07-23T07:39:21;15.23;;;4.85;;
41309;SDS011;27057;51.438;-0.010;2022-07-23T07:41:48;20.65;;;4.82;;
41309;SDS011;27057;51.438;-0.010;2022-07-23T07:44:15;26.95;;;4.55;;
41309;SDS011;27057;51.438;-0.010;2022-07-23T07:46:43;16.38;;;4.50;;
41309;SDS011;27057;51.438;-0.010;2022-07-23T07:49:10;12.70;;;4.43;;
41309;SDS011;27057;51.438;-0.010;2022-07-23T07:51:41;10.93;;;4.00;;
41309;SDS011;27057;51.438;-0.010;2022-07-23T07:54:11;14.18;;;4.53;;
41309;SDS011;27057;51.438;-0.010;2022-07-23T07:56:39;12.35;;;4.00;;
41309;SDS011;27057;51.438;-0.010;2022-07-23T07:59:07;18.40;;;4.32;;
41309;SDS011;27057;51.438;-0.010;2022-07-23T08:01:36;10.95;;;4.15;;
41309;SDS011;27057;51.438;-0.010;2022-07-23T08:04:04;15.60;;;4.30;;
41309;SDS011;27057;51.438;-0.010;2022-07-23T08:06:32;14.07;;;4.40;;
41309;SDS011;27057;51.438;-0.010;2022-07-23T08:08:59;13.80;;;3.70;;
41309;SDS011;27057;51.438;-0.010;2022-07-23T08:11:27;8.48;;;3.60;;
41309;SDS011;27057;51.438;-0.010;2022-07-23T08:13:54;11.30;;;2.92;;
41309;SDS011;27057;51.438;-0.010;2022-07-23T08:16:21;6.25;;;3.13;;
41309;SDS011;27057;51.438;-0.010;2022-07-23T08:18:49;9.57;;;3.45;;
41309;SDS011;27057;51.438;-0.010;2022-07-23T08:21:16;11.70;;;3.70;;
41309;SDS011;27057;51.438;-0.010;2022-07-23T08:23:44;9.50;;;3.50;;
41309;SDS011;27057;51.438;-0.010;2022-07-23T08:26:11;9.60;;;4.38;;
41309;SDS011;27057;51.438;-0.010;2022-07-23T08:28:39;10.25;;;3.38;;
41309;SDS011;27057;51.438;-0.010;2022-07-23T08:31:06;8.60;;;3.13;;
41309;SDS011;27057;51.438;-0.010;2022-07-23T08:33:34;12.23;;;3.55;;
41309;SDS011;27057;51.438;-0.010;2022-07-23T08:36:02;8.77;;;3.00;;
41309;SDS011;27057;51.438;-0.010;2022-07-23T08:38:31;10.35;;;3.88;;
41309;SDS011;27057;51.438;-0.010;2022-07-23T08:41:02;11.13;;;3.35;;
41309;SDS011;27057;51.438;-0.010;2022-07-23T08:43:32;13.07;;;3.70;;
41309;SDS011;27057;51.438;-0.010;2022-07-23T08:46:01;9.77;;;2.63;;
41309;SDS011;27057;51.438;-0.010;2022-07-23T08:48:31;6.00;;;3.28;;
41309;SDS011;27057;51.438;-0.010;2022-07-23T08:51:01;10.77;;;3.03;;
41309;SDS011;27057;51.438;-0.010;2022-07-23T08:53:30;9.55;;;3.35;;
41309;SDS011;27057;51.438;-0.010;2022-07-23T08:55:59;14.45;;;3.05;;
41309;SDS011;27057;51.438;-0.010;2022-07-23T08:58:28;7.28;;;2.50;;
41309;SDS011;27057;51.438;-0.010;2022-07-23T09:00:58;8.52;;;2.70;;
41309;SDS011;27057;51.438;-0.010;2022-07-23T09:03:30;13.10;;;3.15;;
41309;SDS011;27057;51.438;-0.010;2022-07-23T09:06:02;12.98;;;3.30;;
41309;SDS011;27057;51.438;-0.010;2022-07-23T09:08:34;4.28;;;2.42;;
41309;SDS011;27057;51.438;-0.010;2022-07-23T09:11:05;12.63;;;2.72;;
41309;SDS011;27057;51.438;-0.010;2022-07-23T09:16:16;8.35;;;2.50;;
41309;SDS011;27057;51.438;-0.010;2022-07-23T09:18:48;5.40;;;2.58;;
41309;SDS011;27057;51.438;-0.010;2022-07-23T09:23:54;7.22;;;2.75;;
41309;SDS011;27057;51.438;-0.010;2022-07-23T09:26:43;11.30;;;3.05;;
41309;SDS011;27057;51.438;-0.010;2022-07-23T09:31:57;9.27;;;2.22;;
41309;SDS011;27057;51.438;-0.010;2022-07-23T09:34:35;12.48;;;2.75;;
41309;SDS011;27057;51.438;-0.010;2022-07-23T09:39:44;11.68;;;2.95;;
41309;SDS011;27057;51.438;-0.010;2022-07-23T09:44:51;6.20;;;2.55;;
41309;SDS011;27057;51.438;-0.010;2022-07-23T09:47:21;12.85;;;2.75;;
41309;SDS011;27057;51.438;-0.010;2022-07-23T09:50:08;6.63;;;2.35;;
41309;SDS011;27057;51.438;-0.010;2022-07-23T09:55:08;8.60;;;2.15;;
41309;SDS011;27057;51.438;-0.010;2022-07-23T09:57:36;7.57;;;2.58;;
41309;SDS011;27057;51.438;-0.010;2022-07-23T10:00:06;9.40;;;2.22;;
41309;SDS011;27057;51.438;-0.010;2022-07-23T10:02:36;3.33;;;1.42;;
41309;SDS011;27057;51.438;-0.010;2022-07-23T10:05:24;3.10;;;1.70;;
41309;SDS011;27057;51.438;-0.010;2022-07-23T10:08:11;5.43;;;1.88;;
41309;SDS011;27057;51.438;-0.010;2022-07-23T10:10:39;9.30;;;2.00;;
41309;SDS011;27057;51.438;-0.010;2022-07-23T10:13:30;1.70;;;1.50;;
41309;SDS011;27057;51.438;-0.010;2022-07-23T10:16:17;5.63;;;1.95;;
41309;SDS011;27057;51.438;-0.010;2022-07-23T10:18:53;4.97;;;1.48;;
41309;SDS011;27057;51.438;-0.010;2022-07-23T10:21:24;3.78;;;1.95;;
41309;SDS011;27057;51.438;-0.010;2022-07-23T10:26:57;11.40;;;1.60;;
41309;SDS011;27057;51.438;-0.010;2022-07-23T10:32:15;9.88;;;2.30;;
41309;SDS011;27057;51.438;-0.010;2022-07-23T10:37:39;6.97;;;2.10;;
41309;SDS011;27057;51.438;-0.010;2022-07-23T10:40:14;4.00;;;1.80;;
41309;SDS011;27057;51.438;-0.010;2022-07-23T10:42:44;4.60;;;1.77;;
41309;SDS011;27057;51.438;-0.010;2022-07-23T10:45:23;4.63;;;1.95;;
41309;SDS011;27057;51.438;-0.010;2022-07-23T10:47:54;5.70;;;1.77;;
41309;SDS011;27057;51.438;-0.010;2022-07-23T10:50:28;9.63;;;2.15;;
41309;SDS011;27057;51.438;-0.010;2022-07-23T10:53:17;6.45;;;1.95;;
41309;SDS011;27057;51.438;-0.010;2022-07-23T10:55:49;10.13;;;1.85;;
41309;SDS011;27057;51.438;-0.010;2022-07-23T10:58:18;6.88;;;1.90;;
41309;SDS011;27057;51.438;-0.010;2022-07-23T11:00:48;4.45;;;2.13;;
41309;SDS011;27057;51.438;-0.010;2022-07-23T11:03:37;4.05;;;1.83;;
41309;SDS011;27057;51.438;-0.010;2022-07-23T11:06:04;2.78;;;1.75;;
41309;SDS011;27057;51.438;-0.010;2022-07-23T11:08:32;9.68;;;1.65;;
41309;SDS011;27057;51.438;-0.010;2022-07-23T11:13:31;4.93;;;1.90;;
41309;SDS011;27057;51.438;-0.010;2022-07-23T11:24:08;4.85;;;1.98;;
41309;SDS011;27057;51.438;-0.010;2022-07-23T11:31:55;3.88;;;1.63;;
41309;SDS011;27057;51.438;-0.010;2022-07-23T11:34:35;4.47;;;1.80;;
41309;SDS011;27057;51.438;-0.010;2022-07-23T11:37:08;3.30;;;1.90;;
41309;SDS011;27057;51.438;-0.010;2022-07-23T11:39:37;4.53;;;1.55;;
41309;SDS011;27057;51.438;-0.010;2022-07-23T11:42:06;7.60;;;1.70;;
41309;SDS011;27057;51.438;-0.010;2022-07-23T11:44:38;5.10;;;1.90;;
41309;SDS011;27057;51.438;-0.010;2022-07-23T11:47:09;4.80;;;2.30;;
41309;SDS011;27057;51.438;-0.010;2022-07-23T11:49:59;8.80;;;2.00;;
41309;SDS011;27057;51.438;-0.010;2022-07-23T11:52:30;3.75;;;2.20;;
41309;SDS011;27057;51.438;-0.010;2022-07-23T11:54:59;6.40;;;2.10;;
41309;SDS011;27057;51.438;-0.010;2022-07-23T11:57:30;3.28;;;1.40;;
41309;SDS011;27057;51.438;-0.010;2022-07-23T12:00:03;5.40;;;1.60;;
41309;SDS011;27057;51.438;-0.010;2022-07-23T12:02:39;5.90;;;1.58;;
41309;SDS011;27057;51.438;-0.010;2022-07-23T12:05:16;3.97;;;1.77;;
41309;SDS011;27057;51.438;-0.010;2022-07-23T12:07:45;6.60;;;1.67;;
41309;SDS011;27057;51.438;-0.010;2022-07-23T12:10:18;3.47;;;1.73;;
41309;SDS011;27057;51.438;-0.010;2022-07-23T12:13:01;5.40;;;2.58;;
41309;SDS011;27057;51.438;-0.010;2022-07-23T12:15:34;6.47;;;2.55;;
41309;SDS011;27057;51.438;-0.010;2022-07-23T12:18:14;4.85;;;2.17;;
41309;SDS011;27057;51.438;-0.010;2022-07-23T12:20:48;4.60;;;2.03;;
41309;SDS011;27057;51.438;-0.010;2022-07-23T12:23:22;7.03;;;2.15;;
41309;SDS011;27057;51.438;-0.010;2022-07-23T12:25:51;5.25;;;2.88;;
41309;SDS011;27057;51.438;-0.010;2022-07-23T12:28:20;3.97;;;2.10;;
41309;SDS011;27057;51.438;-0.010;2022-07-23T12:30:59;6.40;;;2.05;;
41309;SDS011;27057;51.438;-0.010;2022-07-23T12:33:28;6.10;;;1.90;;
41309;SDS011;27057;51.438;-0.010;2022-07-23T12:35:59;2.20;;;1.58;;
41309;SDS011;27057;51.438;-0.010;2022-07-23T12:38:44;4.78;;;1.60;;
41309;SDS011;27057;51.438;-0.010;2022-07-23T12:41:15;6.18;;;2.22;;
41309;SDS011;27057;51.438;-0.010;2022-07-23T12:43:43;6.32;;;2.35;;
41309;SDS011;27057;51.438;-0.010;2022-07-23T12:46:13;3.40;;;1.80;;
41309;SDS011;27057;51.438;-0.010;2022-07-23T12:51:25;3.45;;;1.50;;
41309;SDS011;27057;51.438;-0.010;2022-07-23T12:53:57;8.27;;;2.35;;
41309;SDS011;27057;51.438;-0.010;2022-07-23T12:56:34;4.93;;;2.03;;
41309;SDS011;27057;51.438;-0.010;2022-07-23T13:01:35;3.63;;;1.60;;
41309;SDS011;27057;51.438;-0.010;2022-07-23T13:04:05;3.75;;;1.90;;
41309;SDS011;27057;51.438;-0.010;2022-07-23T13:09:17;2.80;;;1.58;;
41309;SDS011;27057;51.438;-0.010;2022-07-23T13:11:47;3.22;;;1.52;;
41309;SDS011;27057;51.438;-0.010;2022-07-23T13:14:15;3.58;;;1.63;;
41309;SDS011;27057;51.438;-0.010;2022-07-23T13:16:47;2.90;;;1.52;;
41309;SDS011;27057;51.438;-0.010;2022-07-23T13:19:16;5.78;;;1.33;;
41309;SDS011;27057;51.438;-0.010;2022-07-23T13:21:45;3.83;;;1.60;;
41309;SDS011;27057;51.438;-0.010;2022-07-23T13:24:12;4.75;;;1.40;;
41309;SDS011;27057;51.438;-0.010;2022-07-23T13:26:40;1.42;;;1.17;;
41309;SDS011;27057;51.438;-0.010;2022-07-23T13:29:09;2.80;;;1.58;;
41309;SDS011;27057;51.438;-0.010;2022-07-23T13:31:37;2.97;;;1.10;;
41309;SDS011;27057;51.438;-0.010;2022-07-23T13:34:05;3.10;;;1.38;;
41309;SDS011;27057;51.438;-0.010;2022-07-23T13:36:34;2.70;;;1.25;;
41309;SDS011;27057;51.438;-0.010;2022-07-23T13:39:03;2.33;;;1.67;;
41309;SDS011;27057;51.438;-0.010;2022-07-23T13:41:33;3.70;;;1.70;;
41309;SDS011;27057;51.438;-0.010;2022-07-23T13:44:02;3.30;;;1.90;;
41309;SDS011;27057;51.438;-0.010;2022-07-23T13:46:30;3.55;;;2.45;;
41309;SDS011;27057;51.438;-0.010;2022-07-23T13:48:57;5.50;;;1.33;;
41309;SDS011;27057;51.438;-0.010;2022-07-23T13:51:25;2.05;;;1.30;;
41309;SDS011;27057;51.438;-0.010;2022-07-23T13:53:54;2.88;;;1.50;;
41309;SDS011;27057;51.438;-0.010;2022-07-23T13:56:22;3.75;;;1.48;;
41309;SDS011;27057;51.438;-0.010;2022-07-23T13:58:49;1.92;;;1.38;;
41309;SDS011;27057;51.438;-0.010;2022-07-23T14:01:17;3.30;;;1.88;;
41309;SDS011;27057;51.438;-0.010;2022-07-23T14:03:44;3.83;;;1.67;;
41309;SDS011;27057;51.438;-0.010;2022-07-23T14:06:13;3.78;;;1.73;;
41309;SDS011;27057;51.438;-0.010;2022-07-23T14:08:43;2.15;;;1.13;;
41309;SDS011;27057;51.438;-0.010;2022-07-23T14:11:11;3.25;;;1.77;;
41309;SDS011;27057;51.438;-0.010;2022-07-23T14:13:39;1.40;;;1.25;;
41309;SDS011;27057;51.438;-0.010;2022-07-23T14:16:07;3.17;;;1.83;;
41309;SDS011;27057;51.438;-0.010;2022-07-23T14:18:35;4.43;;;1.73;;
41309;SDS011;27057;51.438;-0.010;2022-07-23T14:21:03;3.33;;;1.88;;
41309;SDS011;27057;51.438;-0.010;2022-07-23T14:23:32;2.53;;;1.33;;
41309;SDS011;27057;51.438;-0.010;2022-07-23T14:26:00;6.60;;;1.70;;
41309;SDS011;27057;51.438;-0.010;2022-07-23T14:28:32;4.80;;;1.73;;
41309;SDS011;27057;51.438;-0.010;2022-07-23T14:31:02;3.83;;;1.75;;
41309;SDS011;27057;51.438;-0.010;2022-07-23T14:33:29;3.20;;;1.80;;
41309;SDS011;27057;51.438;-0.010;2022-07-23T14:35:57;4.60;;;1.80;;
41309;SDS011;27057;51.438;-0.010;2022-07-23T14:38:25;4.55;;;1.70;;
41309;SDS011;27057;51.438;-0.010;2022-07-23T14:40:53;5.32;;;1.70;;
41309;SDS011;27057;51.438;-0.010;2022-07-23T14:43:21;6.53;;;1.48;;
41309;SDS011;27057;51.438;-0.010;2022-07-23T14:45:49;3.45;;;2.25;;
41309;SDS011;27057;51.438;-0.010;2022-07-23T14:48:16;10.80;;;2.20;;
41309;SDS011;27057;51.438;-0.010;2022-07-23T14:50:43;8.15;;;2.28;;
41309;SDS011;27057;51.438;-0.010;2022-07-23T14:53:11;9.80;;;1.92;;
41309;SDS011;27057;51.438;-0.010;2022-07-23T14:55:39;6.00;;;2.10;;
41309;SDS011;27057;51.438;-0.010;2022-07-23T14:58:06;6.22;;;2.20;;
41309;SDS011;27057;51.438;-0.010;2022-07-23T15:00:35;5.28;;;2.22;;
41309;SDS011;27057;51.438;-0.010;2022-07-23T15:03:03;2.92;;;1.83;;
41309;SDS011;27057;51.438;-0.010;2022-07-23T15:05:31;5.00;;;1.48;;
41309;SDS011;27057;51.438;-0.010;2022-07-23T15:07:59;4.25;;;1.70;;
41309;SDS011;27057;51.438;-0.010;2022-07-23T15:10:26;8.43;;;2.03;;
41309;SDS011;27057;51.438;-0.010;2022-07-23T15:12:53;11.73;;;1.92;;
41309;SDS011;27057;51.438;-0.010;2022-07-23T15:15:21;5.72;;;2.00;;
41309;SDS011;27057;51.438;-0.010;2022-07-23T15:17:49;4.32;;;2.10;;
41309;SDS011;27057;51.438;-0.010;2022-07-23T15:20:16;8.13;;;2.35;;
41309;SDS011;27057;51.438;-0.010;2022-07-23T15:23:04;5.18;;;2.28;;
41309;SDS011;27057;51.438;-0.010;2022-07-23T15:25:53;11.38;;;1.90;;
41309;SDS011;27057;51.438;-0.010;2022-07-23T15:28:21;4.30;;;1.80;;
41309;SDS011;27057;51.438;-0.010;2022-07-23T15:30:49;4.38;;;1.85;;
41309;SDS011;27057;51.438;-0.010;2022-07-23T15:33:20;6.78;;;1.70;;
41309;SDS011;27057;51.438;-0.010;2022-07-23T15:35:48;4.40;;;1.75;;
41309;SDS011;27057;51.438;-0.010;2022-07-23T15:38:15;4.53;;;1.10;;
41309;SDS011;27057;51.438;-0.010;2022-07-23T15:40:53;3.33;;;1.50;;
41309;SDS011;27057;51.438;-0.010;2022-07-23T15:43:22;9.55;;;2.20;;
41309;SDS011;27057;51.438;-0.010;2022-07-23T15:45:51;5.30;;;1.55;;
41309;SDS011;27057;51.438;-0.010;2022-07-23T15:48:20;4.63;;;1.58;;
41309;SDS011;27057;51.438;-0.010;2022-07-23T15:50:48;3.55;;;1.65;;
41309;SDS011;27057;51.438;-0.010;2022-07-23T15:53:16;10.55;;;2.00;;
41309;SDS011;27057;51.438;-0.010;2022-07-23T15:56:03;3.03;;;1.40;;